logo
Search for airport 
image banner adimage banner adimage banner ad
image banner ad

LI-PE05 - Avio Club Elice

Located in Elice, Italy

ICAO - , IATA -

Data provided by Airmate  

General information

Coordinates: N42°29'25" E13°59'48"
Elevation is 246 feet MSL.
 
View others Airports in Abruzzi

Operational data

Special qualification required
Current time UTC:
Current local time:
Weather at : LIBP - Pescara ( 17 km )
METAR: LIBP 241920Z AUTO 10002KT 9999 BKN090/// 20/15 Q1018
TAF: TAF LIBP 241700Z 2418/2518 VRB05KT 9999 FEW040 BECMG 2508/2510 07010KT TEMPO 2511/2518 TSRA
View NOTAMs / SUP AIP / TFR affecting this airport [VIEW]
Communications frequencies: [VIEW]

Runways:

RWY identifierQFULength (ft)Width (ft)SurfaceLDA (ft)
10119759GRASS
28119759GRASS

Airport contact information

Address: Elice Italy

Satellite view of LI-PE05